createdAt,value
2023-04-18T00:00:25.648Z,58.87
2023-04-18T00:03:16.182Z,59.03
2023-04-18T00:05:48.096Z,58.71
2023-04-18T00:08:16.289Z,58.73
2023-04-18T00:10:44.340Z,59.02
2023-04-18T00:13:12.409Z,58.25
2023-04-18T00:15:41.920Z,57.16
2023-04-18T00:18:10.608Z,57.00
2023-04-18T00:20:39.319Z,57.12
2023-04-18T00:23:07.969Z,57.19
2023-04-18T00:25:36.061Z,56.22
2023-04-18T00:28:04.321Z,56.04
2023-04-18T00:30:32.308Z,56.59
2023-04-18T00:33:00.604Z,57.30
2023-04-18T00:35:28.863Z,46.22
2023-04-18T00:37:56.814Z,58.18
2023-04-18T00:40:25.605Z,58.28
2023-04-18T00:42:54.095Z,58.58
2023-04-18T00:45:22.364Z,58.15
2023-04-18T00:47:50.607Z,58.22
2023-04-18T00:50:18.807Z,58.66
2023-04-18T00:52:47.306Z,58.41
2023-04-18T00:55:15.436Z,58.88
2023-04-18T00:57:43.636Z,59.37
2023-04-18T01:00:12.622Z,59.44
2023-04-18T01:02:41.524Z,59.80
2023-04-18T01:05:09.841Z,59.41
2023-04-18T01:07:40.831Z,57.23
2023-04-18T01:10:10.250Z,57.07
2023-04-18T01:12:38.625Z,57.58
2023-04-18T01:15:07.720Z,57.83
2023-04-18T01:17:36.634Z,58.74
2023-04-18T01:20:06.564Z,58.44
2023-04-18T01:22:34.806Z,56.96
2023-04-18T01:25:07.683Z,57.80
2023-04-18T01:27:35.650Z,58.02
2023-04-18T01:30:04.350Z,57.90
2023-04-18T01:32:32.456Z,57.55
2023-04-18T01:35:00.697Z,57.00
2023-04-18T01:37:28.766Z,57.61
2023-04-18T01:39:58.388Z,58.21
2023-04-18T01:42:26.287Z,58.45
2023-04-18T01:44:54.416Z,57.56
2023-04-18T01:47:22.500Z,57.34
2023-04-18T01:49:50.403Z,57.08
2023-04-18T01:52:18.424Z,56.62
2023-04-18T01:54:46.398Z,56.38
2023-04-18T01:57:14.458Z,56.60
2023-04-18T01:59:42.372Z,56.18
2023-04-18T02:02:11.517Z,55.62
2023-04-18T02:04:39.707Z,55.63
2023-04-18T02:07:07.667Z,56.69
2023-04-18T02:09:36.677Z,57.59
2023-04-18T02:12:05.064Z,56.41
2023-04-18T02:14:35.738Z,56.76
2023-04-18T02:17:03.867Z,56.58
2023-04-18T02:19:32.642Z,56.78
2023-04-18T02:22:00.729Z,56.84
2023-04-18T02:24:28.787Z,56.64
2023-04-18T02:26:56.755Z,55.84
2023-04-18T02:29:28.108Z,56.27
2023-04-18T02:31:56.640Z,55.57
2023-04-18T02:34:24.644Z,54.14
2023-04-18T02:36:52.834Z,53.19
2023-04-18T02:39:21.164Z,52.47
2023-04-18T02:41:51.128Z,53.51
2023-04-18T02:44:19.192Z,53.43
2023-04-18T02:46:47.782Z,53.81
2023-04-18T02:49:15.959Z,54.85
2023-04-18T02:51:45.875Z,54.89
2023-04-18T02:54:14.117Z,54.18
2023-04-18T02:57:03.519Z,54.57
2023-04-18T02:59:49.404Z,54.58
2023-04-18T03:02:40.673Z,54.17
2023-04-18T03:05:24.062Z,54.62
2023-04-18T03:07:52.557Z,55.45
2023-04-18T03:10:20.906Z,54.93
2023-04-18T03:12:49.085Z,54.77
2023-04-18T03:15:17.678Z,54.85
2023-04-18T03:17:46.089Z,54.89
2023-04-18T03:20:14.736Z,54.83
2023-04-18T03:22:42.708Z,54.93
2023-04-18T03:25:11.372Z,55.36
2023-04-18T03:27:45.199Z,54.88
2023-04-18T03:30:14.908Z,55.77
2023-04-18T03:32:43.739Z,56.05
2023-04-18T03:35:11.789Z,56.60
2023-04-18T03:37:40.288Z,54.57
2023-04-18T03:40:10.989Z,55.95
2023-04-18T03:42:39.149Z,55.62
2023-04-18T03:45:07.946Z,55.11
2023-04-18T03:47:36.341Z,54.19
2023-04-18T03:50:05.099Z,53.95
2023-04-18T03:52:33.397Z,54.19
2023-04-18T03:55:05.248Z,54.80
2023-04-18T03:57:34.549Z,54.67
2023-04-18T04:00:05.931Z,55.50
2023-04-18T04:02:44.171Z,55.87
2023-04-18T04:05:17.815Z,55.66
2023-04-18T04:07:46.706Z,54.98
2023-04-18T04:10:14.718Z,54.74
2023-04-18T04:12:43.160Z,55.69
2023-04-18T04:15:11.924Z,53.14
2023-04-18T04:17:43.600Z,53.40
2023-04-18T04:20:12.811Z,53.17
2023-04-18T04:22:41.590Z,54.92
2023-04-18T04:25:10.685Z,55.22
2023-04-18T04:27:40.096Z,55.54
2023-04-18T04:30:11.858Z,54.66
2023-04-18T04:32:41.472Z,54.50
2023-04-18T04:35:09.888Z,54.65
2023-04-18T04:37:38.722Z,54.87
2023-04-18T04:40:33.108Z,54.36
2023-04-18T04:43:12.926Z,54.68
2023-04-18T04:45:42.921Z,54.94
2023-04-18T04:48:11.585Z,54.72
2023-04-18T04:50:40.768Z,54.31
2023-04-18T04:53:08.938Z,52.26
2023-04-18T04:55:38.749Z,51.01
2023-04-18T04:58:06.900Z,50.91
2023-04-18T05:00:58.378Z,49.68
2023-04-18T05:03:26.655Z,48.69
2023-04-18T05:05:54.988Z,51.71
2023-04-18T05:08:23.021Z,51.96
2023-04-18T05:10:51.331Z,51.14
2023-04-18T05:13:19.326Z,51.51
2023-04-18T05:15:47.791Z,50.58
2023-04-18T05:18:16.172Z,50.17
2023-04-18T05:20:44.135Z,49.67
2023-04-18T05:23:12.427Z,49.21
2023-04-18T05:25:40.592Z,49.62
2023-04-18T05:28:08.724Z,51.10
2023-04-18T05:30:36.716Z,51.32
2023-04-18T05:33:05.154Z,51.55
2023-04-18T05:37:01.959Z,68.03
2023-04-18T05:39:29.944Z,62.32
2023-04-18T05:41:58.630Z,59.80
2023-04-18T05:44:26.755Z,57.45
2023-04-18T05:46:54.638Z,55.85
2023-04-18T05:49:22.830Z,54.36
2023-04-18T05:51:51.119Z,54.01
2023-04-18T05:54:21.561Z,52.50
2023-04-18T05:56:49.718Z,51.46
2023-04-18T05:59:17.690Z,50.52
2023-04-18T06:01:45.764Z,50.04
2023-04-18T06:04:16.578Z,49.12
2023-04-18T06:06:44.988Z,48.23
2023-04-18T06:09:13.051Z,47.64
2023-04-18T06:11:41.121Z,47.13
2023-04-18T06:14:09.100Z,46.59
2023-04-18T06:16:37.986Z,45.96
2023-04-18T06:19:06.360Z,45.94
2023-04-18T06:21:34.432Z,45.46
2023-04-18T06:24:02.614Z,44.95
2023-04-18T06:26:32.158Z,44.69
2023-04-18T06:29:00.288Z,44.25
2023-04-18T06:31:28.365Z,43.70
2023-04-18T06:33:56.846Z,43.29
2023-04-18T06:36:25.001Z,43.31
2023-04-18T06:38:52.934Z,43.17
2023-04-18T06:41:21.158Z,42.66
2023-04-18T06:44:02.248Z,42.38
2023-04-18T06:46:32.855Z,41.92
2023-04-18T06:49:00.857Z,41.62
2023-04-18T06:51:29.293Z,41.24
2023-04-18T06:53:57.496Z,40.91
2023-04-18T06:56:26.157Z,40.94
2023-04-18T06:58:54.057Z,41.23
2023-04-18T07:01:22.582Z,40.89
2023-04-18T07:03:50.845Z,40.54
2023-04-18T07:06:19.069Z,40.76
2023-04-18T07:08:47.249Z,38.61
2023-04-18T07:11:18.621Z,36.18
2023-04-18T07:13:48.929Z,35.21
2023-04-18T07:16:17.140Z,36.25
2023-04-18T07:18:45.299Z,37.38
2023-04-18T07:21:13.429Z,37.74
2023-04-18T07:23:41.430Z,37.62
2023-04-18T07:26:12.728Z,36.85
2023-04-18T07:28:40.709Z,36.98
2023-04-18T07:31:11.827Z,37.30
2023-04-18T07:33:40.459Z,37.16
2023-04-18T07:36:09.067Z,37.40
2023-04-18T07:38:37.421Z,37.35
2023-04-18T07:41:05.489Z,37.68
2023-04-18T07:43:33.774Z,37.18
2023-04-18T07:46:01.879Z,37.17
2023-04-18T07:48:30.107Z,37.05
2023-04-18T07:50:58.595Z,36.98
2023-04-18T07:53:27.086Z,37.15
2023-04-18T07:55:55.761Z,37.17
2023-04-18T07:58:23.946Z,37.16
2023-04-18T08:00:52.021Z,35.68
2023-04-18T08:03:20.381Z,34.43
2023-04-18T08:05:49.190Z,36.47
2023-04-18T08:08:17.257Z,35.57
2023-04-18T08:10:45.536Z,33.67
2023-04-18T08:13:13.957Z,32.56
2023-04-18T08:15:42.544Z,31.49
2023-04-18T08:18:10.968Z,31.99
2023-04-18T08:20:39.112Z,31.84
2023-04-18T08:23:09.707Z,32.39
2023-04-18T08:25:40.827Z,32.44
2023-04-18T08:28:08.899Z,32.62
2023-04-18T08:30:39.448Z,32.74
2023-04-18T08:33:07.737Z,32.21
2023-04-18T08:35:35.996Z,32.58
2023-04-18T08:38:04.060Z,32.11
2023-04-18T08:40:33.050Z,32.38
2023-04-18T08:43:02.748Z,32.49
2023-04-18T08:45:48.598Z,32.92
2023-04-18T08:48:34.016Z,33.06
2023-04-18T08:51:02.489Z,33.24
2023-04-18T08:53:48.795Z,33.19
2023-04-18T08:56:16.972Z,33.32
2023-04-18T08:58:45.301Z,33.40
2023-04-18T09:01:13.823Z,33.52
2023-04-18T09:03:43.406Z,33.56
2023-04-18T09:06:30.557Z,33.62
2023-04-18T09:09:02.162Z,33.62
2023-04-18T09:11:31.938Z,33.69
2023-04-18T09:14:24.397Z,33.83
2023-04-18T09:16:53.605Z,33.89
2023-04-18T09:19:22.039Z,33.77
2023-04-18T09:22:09.978Z,33.69
2023-04-18T09:24:39.796Z,33.67
2023-04-18T09:27:25.270Z,33.64
2023-04-18T09:29:55.901Z,33.72
2023-04-18T09:32:27.489Z,33.41
2023-04-18T09:34:58.607Z,28.93
2023-04-18T09:37:26.886Z,29.93
2023-04-18T09:39:55.063Z,31.40
2023-04-18T09:42:23.125Z,31.47
2023-04-18T09:45:05.099Z,31.33
2023-04-18T09:47:35.453Z,31.32
2023-04-18T09:50:04.900Z,31.38
2023-04-18T09:52:35.590Z,31.20
2023-04-18T09:55:08.133Z,31.15
2023-04-18T09:57:36.968Z,31.27
2023-04-18T10:00:17.238Z,30.84
2023-04-18T10:03:09.995Z,30.63
2023-04-18T10:05:39.839Z,29.78
2023-04-18T10:08:08.496Z,29.66
2023-04-18T10:10:38.829Z,29.74
2023-04-18T10:13:08.686Z,29.79
2023-04-18T10:15:36.905Z,29.60
2023-04-18T10:18:16.435Z,29.23
2023-04-18T10:20:46.525Z,28.99
2023-04-18T10:23:36.310Z,28.91
2023-04-18T10:26:08.380Z,28.76
2023-04-18T10:28:59.597Z,28.85
2023-04-18T10:31:28.841Z,29.01
2023-04-18T10:36:32.624Z,28.44
2023-04-18T10:39:21.305Z,28.36
2023-04-18T10:41:51.124Z,28.67
2023-04-18T10:44:22.010Z,28.81
2023-04-18T10:46:53.198Z,28.45
2023-04-18T10:52:00.798Z,28.39
2023-04-18T10:54:32.238Z,28.24
2023-04-18T10:57:04.913Z,28.55
2023-04-18T10:59:34.404Z,28.70
2023-04-18T11:02:32.488Z,28.68
2023-04-18T11:05:03.038Z,28.42
2023-04-18T11:07:49.099Z,28.52
2023-04-18T11:10:22.601Z,28.31
2023-04-18T11:12:50.788Z,27.58
2023-04-18T11:15:23.187Z,27.69
2023-04-18T11:18:02.251Z,27.86
2023-04-18T11:20:40.039Z,27.75
2023-04-18T11:23:20.247Z,27.43
2023-04-18T11:25:50.472Z,27.71
2023-04-18T11:28:22.236Z,29.43
2023-04-18T11:30:50.506Z,28.65
2023-04-18T11:33:18.829Z,28.52
2023-04-18T11:35:47.172Z,28.01
2023-04-18T11:38:16.058Z,27.28
2023-04-18T11:40:51.102Z,27.12
2023-04-18T11:43:23.873Z,27.60
2023-04-18T11:45:55.469Z,28.01
2023-04-18T11:48:24.413Z,28.19
2023-04-18T11:50:52.604Z,28.04
2023-04-18T11:53:36.659Z,27.51
2023-04-18T11:56:05.218Z,27.91
2023-04-18T11:58:36.494Z,29.84
2023-04-18T12:01:25.176Z,30.79
2023-04-18T12:04:06.923Z,32.13
2023-04-18T12:06:52.194Z,31.66
2023-04-18T12:09:25.080Z,30.76
2023-04-18T12:12:00.105Z,30.64
2023-04-18T12:14:28.795Z,30.45
2023-04-18T12:16:56.883Z,30.24
2023-04-18T12:19:28.420Z,30.38
2023-04-18T12:21:57.200Z,30.36
2023-04-18T12:24:25.313Z,30.56
2023-04-18T12:26:53.450Z,30.58
2023-04-18T12:29:21.734Z,30.48
2023-04-18T12:31:49.848Z,30.26
2023-04-18T12:34:18.172Z,30.28
2023-04-18T12:36:46.561Z,28.51
2023-04-18T12:39:14.843Z,23.07
2023-04-18T12:41:43.939Z,23.27
2023-04-18T12:44:12.172Z,22.99
2023-04-18T12:46:40.541Z,23.54
2023-04-18T12:49:08.681Z,23.29
2023-04-18T12:51:36.648Z,23.59
2023-04-18T12:54:04.565Z,23.70
2023-04-18T12:56:32.769Z,23.74
2023-04-18T12:59:00.847Z,23.69
2023-04-18T13:01:29.173Z,25.24
2023-04-18T13:04:10.620Z,29.73
2023-04-18T13:06:40.626Z,27.19
2023-04-18T13:09:09.508Z,24.99
2023-04-18T13:11:37.590Z,26.28
2023-04-18T13:14:05.865Z,24.80
2023-04-18T13:16:34.388Z,23.79
2023-04-18T13:19:02.619Z,23.70
2023-04-18T13:21:31.530Z,23.48
2023-04-18T13:23:59.690Z,23.48
2023-04-18T13:26:27.968Z,23.78
2023-04-18T13:28:56.007Z,24.11
2023-04-18T13:31:24.879Z,23.84
2023-04-18T13:33:53.111Z,24.36
2023-04-18T13:36:21.583Z,25.41
2023-04-18T13:38:51.191Z,25.79
2023-04-18T13:41:19.274Z,27.76
2023-04-18T13:43:48.258Z,26.24
2023-04-18T13:46:16.574Z,24.74
2023-04-18T13:48:44.916Z,24.90
2023-04-18T13:51:13.088Z,24.21
2023-04-18T13:53:41.365Z,23.36
2023-04-18T13:56:09.456Z,23.43
2023-04-18T13:58:37.509Z,23.54
2023-04-18T14:01:06.249Z,22.92
2023-04-18T14:03:36.892Z,23.03
2023-04-18T14:06:06.531Z,23.44
2023-04-18T14:08:34.496Z,23.46
2023-04-18T14:11:02.574Z,23.95
2023-04-18T14:13:30.912Z,25.06
2023-04-18T14:15:59.963Z,27.23
2023-04-18T14:18:28.732Z,28.73
2023-04-18T14:20:56.725Z,28.76
2023-04-18T14:23:26.024Z,29.02
2023-04-18T14:25:54.499Z,29.10
2023-04-18T14:28:25.062Z,29.43
2023-04-18T14:30:58.151Z,29.88
2023-04-18T14:33:26.379Z,29.61
2023-04-18T14:35:54.560Z,29.83
2023-04-18T14:38:22.628Z,29.94
2023-04-18T14:40:50.575Z,29.93
2023-04-18T14:43:18.561Z,30.25
2023-04-18T14:45:46.746Z,30.14
2023-04-18T14:48:14.758Z,30.03
2023-04-18T14:50:43.908Z,30.26
2023-04-18T14:53:12.284Z,30.50
2023-04-18T14:55:40.468Z,31.82
2023-04-18T14:58:08.537Z,31.77
2023-04-18T15:00:37.322Z,31.05
2023-04-18T15:03:05.987Z,30.92
2023-04-18T15:05:35.517Z,31.08
2023-04-18T15:08:04.718Z,31.20
2023-04-18T15:10:32.589Z,32.10
2023-04-18T15:13:00.746Z,31.91
2023-04-18T15:15:30.672Z,32.22
2023-04-18T15:17:58.808Z,32.50
2023-04-18T15:20:27.123Z,32.57
2023-04-18T15:22:56.020Z,32.75
2023-04-18T15:25:26.157Z,32.85
2023-04-18T15:27:54.304Z,32.62
2023-04-18T15:30:22.577Z,32.89
2023-04-18T15:32:50.570Z,32.59
2023-04-18T15:35:18.842Z,32.66
2023-04-18T15:37:46.980Z,32.79
2023-04-18T15:40:16.593Z,32.60
2023-04-18T15:42:45.417Z,32.80
2023-04-18T15:45:14.591Z,32.62
2023-04-18T15:47:42.578Z,32.51
2023-04-18T15:50:11.378Z,32.15
2023-04-18T15:52:41.690Z,32.11
2023-04-18T15:55:15.797Z,31.96
2023-04-18T15:57:43.809Z,31.97
2023-04-18T16:00:19.790Z,31.87
2023-04-18T16:02:48.158Z,31.90
2023-04-18T16:05:16.366Z,31.87
2023-04-18T16:07:44.533Z,31.92
2023-04-18T16:10:13.035Z,32.37
2023-04-18T16:12:41.111Z,32.46
2023-04-18T16:15:10.003Z,32.67
2023-04-18T16:17:38.326Z,33.54
2023-04-18T16:20:08.616Z,33.59
2023-04-18T16:22:37.452Z,33.99
2023-04-18T16:25:06.290Z,34.17
2023-04-18T16:27:34.450Z,34.71
2023-04-18T16:30:03.443Z,33.88
2023-04-18T16:32:31.532Z,28.29
2023-04-18T16:34:59.578Z,27.57
2023-04-18T16:37:27.786Z,27.65
2023-04-18T16:39:55.738Z,26.78
2023-04-18T16:42:23.590Z,26.97
2023-04-18T16:44:52.891Z,27.69
2023-04-18T16:47:21.810Z,29.04
2023-04-18T16:49:51.534Z,29.54
2023-04-18T16:52:20.606Z,29.93
2023-04-18T16:54:50.132Z,30.25
2023-04-18T16:57:20.468Z,30.78
2023-04-18T16:59:48.533Z,30.83
2023-04-18T17:02:16.880Z,31.08
2023-04-18T17:04:45.278Z,31.23
2023-04-18T17:07:13.325Z,31.31
2023-04-18T17:09:41.914Z,31.63
2023-04-18T17:12:09.982Z,31.82
2023-04-18T17:14:38.191Z,31.94
2023-04-18T17:17:06.324Z,32.09
2023-04-18T17:19:34.707Z,32.42
2023-04-18T17:22:02.889Z,32.49
2023-04-18T17:24:30.884Z,32.93
2023-04-18T17:27:00.466Z,32.84
2023-04-18T17:29:28.529Z,33.24
2023-04-18T17:41:26.878Z,33.94
2023-04-18T17:43:55.048Z,33.63
2023-04-18T17:46:23.530Z,33.50
2023-04-18T17:48:51.806Z,33.34
2023-04-18T17:51:20.492Z,33.70
2023-04-18T17:53:48.460Z,33.65
2023-04-18T17:56:16.936Z,33.63
2023-04-18T17:58:45.050Z,33.78
2023-04-18T18:01:20.186Z,34.09
2023-04-18T18:03:49.082Z,33.97
2023-04-18T18:06:17.315Z,34.01
2023-04-18T18:08:45.496Z,33.58
2023-04-18T18:11:13.698Z,34.03
2023-04-18T18:13:42.453Z,34.54
2023-04-18T18:16:10.782Z,35.27
2023-04-18T18:18:39.730Z,34.63
2023-04-18T18:21:08.006Z,34.45
2023-04-18T18:23:36.787Z,34.27
2023-04-18T18:26:06.591Z,34.58
2023-04-18T18:28:34.787Z,35.07
2023-04-18T18:31:03.572Z,34.86
2023-04-18T18:33:31.641Z,34.92
2023-04-18T18:35:59.785Z,34.98
2023-04-18T18:38:27.988Z,35.02
2023-04-18T18:40:56.889Z,35.02
2023-04-18T18:43:26.390Z,35.05
2023-04-18T18:45:54.707Z,34.61
2023-04-18T18:48:26.431Z,34.84
2023-04-18T18:50:56.670Z,34.83
2023-04-18T18:53:24.806Z,34.58
2023-04-18T18:55:53.084Z,34.59
2023-04-18T18:58:21.779Z,34.48
2023-04-18T19:00:51.177Z,34.50
2023-04-18T19:03:21.452Z,34.53
2023-04-18T19:05:49.987Z,34.30
2023-04-18T19:08:18.163Z,34.25
2023-04-18T19:10:46.247Z,34.21
2023-04-18T19:13:14.692Z,34.23
2023-04-18T19:15:42.716Z,34.23
2023-04-18T19:18:10.965Z,34.22
2023-04-18T19:20:40.571Z,34.00
2023-04-18T19:23:08.509Z,34.14
2023-04-18T19:25:37.944Z,34.02
2023-04-18T19:28:06.012Z,33.86
2023-04-18T19:30:34.092Z,33.90
2023-04-18T19:33:02.504Z,33.87
2023-04-18T19:35:30.648Z,33.86
2023-04-18T19:38:02.505Z,33.81
2023-04-18T19:40:30.784Z,33.69
2023-04-18T19:42:58.879Z,33.66
2023-04-18T19:45:27.020Z,33.68
2023-04-18T19:47:55.283Z,33.64
2023-04-18T19:50:23.606Z,33.72
2023-04-18T19:52:51.698Z,33.67
2023-04-18T19:55:19.820Z,33.60
2023-04-18T19:57:47.994Z,33.52
2023-04-18T20:00:16.888Z,33.51
2023-04-18T20:02:45.016Z,33.65
2023-04-18T20:05:13.346Z,33.99
2023-04-18T20:07:42.021Z,33.82
2023-04-18T20:10:11.489Z,34.01
2023-04-18T20:12:39.701Z,34.19
2023-04-18T20:15:08.591Z,34.17
2023-04-18T20:17:36.722Z,34.20
2023-04-18T20:20:08.429Z,34.30
2023-04-18T20:22:38.135Z,34.35
2023-04-18T20:25:07.253Z,34.39
2023-04-18T20:27:35.306Z,34.52
2023-04-18T20:30:03.789Z,34.55
2023-04-18T20:32:32.485Z,34.31
2023-04-18T20:35:02.903Z,34.50
2023-04-18T20:37:31.178Z,34.27
2023-04-18T20:39:59.107Z,34.12
2023-04-18T20:42:27.528Z,34.31
2023-04-18T20:52:34.191Z,34.07
2023-04-18T20:55:02.210Z,33.98
2023-04-18T20:57:30.389Z,33.95
2023-04-18T20:59:59.689Z,34.05
2023-04-18T21:02:28.032Z,34.15
2023-04-18T21:04:56.360Z,34.30
2023-04-18T21:07:24.517Z,34.17
2023-04-18T21:09:52.595Z,34.04
2023-04-18T21:12:20.861Z,34.05
2023-04-18T21:14:48.947Z,33.86
2023-04-18T21:17:17.750Z,33.95
2023-04-18T21:19:49.020Z,33.95
2023-04-18T21:22:17.509Z,33.69
2023-04-18T21:24:46.950Z,34.01
2023-04-18T21:27:16.362Z,34.25
2023-04-18T21:39:55.877Z,34.44
2023-04-18T21:42:24.054Z,34.37
2023-04-18T21:44:52.313Z,34.35
2023-04-18T21:47:20.458Z,34.23
2023-04-18T21:49:49.291Z,34.32
2023-04-18T21:52:17.363Z,34.24
2023-04-18T21:54:45.669Z,34.37
2023-04-18T21:57:13.716Z,34.30
2023-04-18T21:59:41.782Z,34.44
2023-04-18T22:02:09.923Z,34.20
2023-04-18T22:04:42.627Z,34.31
2023-04-18T22:07:12.445Z,34.18
2023-04-18T22:09:40.828Z,34.11
2023-04-18T22:12:08.800Z,34.16
2023-04-18T22:14:36.767Z,34.31
2023-04-18T22:17:04.972Z,34.13
2023-04-18T22:22:06.715Z,34.13
2023-04-18T22:24:34.782Z,34.17
2023-04-18T22:27:03.070Z,34.16
2023-04-18T22:29:31.254Z,34.22
2023-04-18T22:31:59.177Z,34.12
2023-04-18T22:34:27.100Z,34.18
2023-04-18T22:36:55.265Z,34.18
2023-04-18T22:39:24.852Z,34.16
2023-04-18T22:41:52.931Z,33.97
2023-04-18T22:46:54.823Z,34.16
2023-04-18T22:49:23.491Z,34.20
2023-04-18T22:51:54.479Z,34.04
2023-04-18T22:54:22.915Z,33.98
2023-04-18T22:56:50.982Z,34.14
2023-04-18T22:59:19.165Z,34.07
2023-04-18T23:01:47.411Z,34.04
2023-04-18T23:04:16.156Z,34.04
2023-04-18T23:06:44.921Z,34.09
2023-04-18T23:09:13.196Z,34.08
2023-04-18T23:11:41.777Z,34.08
2023-04-18T23:14:09.795Z,34.21
2023-04-18T23:16:38.024Z,34.10
2023-04-18T23:19:05.985Z,34.24
2023-04-18T23:21:34.142Z,34.02
2023-04-18T23:24:02.177Z,34.10
2023-04-18T23:26:30.217Z,34.25
2023-04-18T23:28:58.833Z,34.07
2023-04-18T23:31:27.149Z,34.15
2023-04-18T23:33:56.442Z,34.12
2023-04-18T23:36:24.737Z,34.14
2023-04-18T23:38:52.817Z,34.01
2023-04-18T23:41:20.892Z,33.97
2023-04-18T23:43:48.968Z,34.11
2023-04-18T23:46:17.058Z,34.18
2023-04-18T23:48:45.318Z,34.20
2023-04-18T23:51:13.481Z,34.27
2023-04-18T23:53:41.548Z,34.07
2023-04-18T23:56:09.730Z,34.13
2023-04-18T23:58:37.728Z,34.04
